sensor_id;sensor_type;location;lat;lon;timestamp;P1;durP1;ratioP1;P2;durP2;ratioP2
77109;SDS011;66062;52.464;16.922;2024-03-23T00:53:14;39.15;;;20.45;;
77109;SDS011;66062;52.464;16.922;2024-03-23T00:55:40;38.28;;;19.38;;
77109;SDS011;66062;52.464;16.922;2024-03-23T00:58:06;41.67;;;19.95;;
77109;SDS011;66062;52.464;16.922;2024-03-23T01:00:31;35.43;;;18.73;;
77109;SDS011;66062;52.464;16.922;2024-03-23T01:02:56;44.47;;;21.23;;
77109;SDS011;66062;52.464;16.922;2024-03-23T01:05:21;39.67;;;19.40;;
77109;SDS011;66062;52.464;16.922;2024-03-23T01:07:46;49.93;;;24.93;;
77109;SDS011;66062;52.464;16.922;2024-03-23T01:10:13;37.07;;;19.37;;
77109;SDS011;66062;52.464;16.922;2024-03-23T01:12:38;37.58;;;19.80;;
77109;SDS011;66062;52.464;16.922;2024-03-23T01:15:03;38.95;;;19.65;;
77109;SDS011;66062;52.464;16.922;2024-03-23T01:17:29;37.78;;;19.15;;
77109;SDS011;66062;52.464;16.922;2024-03-23T01:19:54;42.30;;;21.00;;
77109;SDS011;66062;52.464;16.922;2024-03-23T01:22:19;40.03;;;19.83;;
77109;SDS011;66062;52.464;16.922;2024-03-23T01:24:44;42.77;;;19.93;;
77109;SDS011;66062;52.464;16.922;2024-03-23T01:27:09;41.67;;;20.17;;
77109;SDS011;66062;52.464;16.922;2024-03-23T01:29:35;41.50;;;21.17;;
77109;SDS011;66062;52.464;16.922;2024-03-23T01:32:00;38.23;;;19.50;;
77109;SDS011;66062;52.464;16.922;2024-03-23T01:34:25;44.30;;;20.70;;
77109;SDS011;66062;52.464;16.922;2024-03-23T01:36:51;39.33;;;19.60;;
77109;SDS011;66062;52.464;16.922;2024-03-23T01:39:17;42.80;;;21.13;;
77109;SDS011;66062;52.464;16.922;2024-03-23T01:41:42;41.60;;;20.70;;
77109;SDS011;66062;52.464;16.922;2024-03-23T01:44:08;39.53;;;19.80;;
77109;SDS011;66062;52.464;16.922;2024-03-23T01:46:34;39.05;;;19.98;;
77109;SDS011;66062;52.464;16.922;2024-03-23T01:48:59;40.72;;;20.27;;
77109;SDS011;66062;52.464;16.922;2024-03-23T01:51:25;39.92;;;20.75;;
77109;SDS011;66062;52.464;16.922;2024-03-23T01:53:51;38.90;;;20.58;;
77109;SDS011;66062;52.464;16.922;2024-03-23T01:56:17;41.58;;;21.73;;
77109;SDS011;66062;52.464;16.922;2024-03-23T01:58:42;47.60;;;22.23;;
77109;SDS011;66062;52.464;16.922;2024-03-23T02:01:08;42.40;;;19.00;;
77109;SDS011;66062;52.464;16.922;2024-03-23T02:03:33;44.10;;;20.90;;
77109;SDS011;66062;52.464;16.922;2024-03-23T02:05:58;43.93;;;20.67;;
77109;SDS011;66062;52.464;16.922;2024-03-23T02:08:24;41.67;;;20.57;;
77109;SDS011;66062;52.464;16.922;2024-03-23T02:10:49;41.20;;;19.73;;
77109;SDS011;66062;52.464;16.922;2024-03-23T02:13:18;45.35;;;21.25;;
77109;SDS011;66062;52.464;16.922;2024-03-23T02:15:43;39.83;;;19.88;;
77109;SDS011;66062;52.464;16.922;2024-03-23T02:18:09;42.80;;;20.30;;
77109;SDS011;66062;52.464;16.922;2024-03-23T02:20:35;42.03;;;20.80;;
77109;SDS011;66062;52.464;16.922;2024-03-23T02:23:00;46.40;;;22.20;;
77109;SDS011;66062;52.464;16.922;2024-03-23T02:25:26;45.00;;;21.57;;
77109;SDS011;66062;52.464;16.922;2024-03-23T02:27:51;45.15;;;20.73;;
77109;SDS011;66062;52.464;16.922;2024-03-23T02:30:19;43.65;;;22.02;;
77109;SDS011;66062;52.464;16.922;2024-03-23T02:32:44;45.67;;;21.83;;
77109;SDS011;66062;52.464;16.922;2024-03-23T02:35:09;45.57;;;21.80;;
77109;SDS011;66062;52.464;16.922;2024-03-23T02:37:35;45.27;;;22.00;;
77109;SDS011;66062;52.464;16.922;2024-03-23T02:40:00;48.40;;;22.03;;
77109;SDS011;66062;52.464;16.922;2024-03-23T02:42:25;47.63;;;22.00;;
77109;SDS011;66062;52.464;16.922;2024-03-23T02:44:50;46.07;;;22.60;;
77109;SDS011;66062;52.464;16.922;2024-03-23T02:47:16;49.85;;;21.42;;
77109;SDS011;66062;52.464;16.922;2024-03-23T02:49:41;46.27;;;22.60;;
77109;SDS011;66062;52.464;16.922;2024-03-23T02:52:06;43.93;;;22.67;;
77109;SDS011;66062;52.464;16.922;2024-03-23T02:54:31;47.57;;;22.43;;
77109;SDS011;66062;52.464;16.922;2024-03-23T02:56:56;48.77;;;21.80;;
77109;SDS011;66062;52.464;16.922;2024-03-23T02:59:22;43.33;;;20.93;;
77109;SDS011;66062;52.464;16.922;2024-03-23T03:01:47;48.73;;;21.90;;
77109;SDS011;66062;52.464;16.922;2024-03-23T03:04:12;45.50;;;22.87;;
77109;SDS011;66062;52.464;16.922;2024-03-23T03:06:37;42.20;;;20.93;;
77109;SDS011;66062;52.464;16.922;2024-03-23T03:09:03;44.07;;;21.93;;
77109;SDS011;66062;52.464;16.922;2024-03-23T03:11:28;44.72;;;21.88;;
77109;SDS011;66062;52.464;16.922;2024-03-23T03:13:53;40.80;;;20.88;;
77109;SDS011;66062;52.464;16.922;2024-03-23T03:16:19;42.73;;;21.80;;
77109;SDS011;66062;52.464;16.922;2024-03-23T03:18:44;39.17;;;20.73;;
77109;SDS011;66062;52.464;16.922;2024-03-23T03:21:11;42.67;;;21.27;;
77109;SDS011;66062;52.464;16.922;2024-03-23T03:23:39;44.33;;;21.83;;
77109;SDS011;66062;52.464;16.922;2024-03-23T03:26:05;41.95;;;21.85;;
77109;SDS011;66062;52.464;16.922;2024-03-23T03:28:31;40.53;;;21.15;;
77109;SDS011;66062;52.464;16.922;2024-03-23T03:30:57;42.65;;;20.77;;
77109;SDS011;66062;52.464;16.922;2024-03-23T03:33:23;41.70;;;21.13;;
77109;SDS011;66062;52.464;16.922;2024-03-23T03:35:48;39.87;;;21.07;;
77109;SDS011;66062;52.464;16.922;2024-03-23T03:38:13;38.23;;;19.90;;
77109;SDS011;66062;52.464;16.922;2024-03-23T03:40:38;40.47;;;19.67;;
77109;SDS011;66062;52.464;16.922;2024-03-23T03:43:03;39.57;;;19.97;;
77109;SDS011;66062;52.464;16.922;2024-03-23T03:45:29;36.37;;;18.73;;
77109;SDS011;66062;52.464;16.922;2024-03-23T03:47:54;42.10;;;19.63;;
77109;SDS011;66062;52.464;16.922;2024-03-23T03:50:19;38.40;;;19.50;;
77109;SDS011;66062;52.464;16.922;2024-03-23T03:52:45;40.05;;;19.92;;
77109;SDS011;66062;52.464;16.922;2024-03-23T03:55:13;38.00;;;19.92;;
77109;SDS011;66062;52.464;16.922;2024-03-23T03:57:39;25.95;;;14.57;;
77109;SDS011;66062;52.464;16.922;2024-03-23T04:00:05;18.50;;;10.23;;
77109;SDS011;66062;52.464;16.922;2024-03-23T04:02:30;11.07;;;4.70;;
77109;SDS011;66062;52.464;16.922;2024-03-23T04:04:55;11.60;;;4.63;;
77109;SDS011;66062;52.464;16.922;2024-03-23T04:07:21;10.57;;;3.50;;
77109;SDS011;66062;52.464;16.922;2024-03-23T04:09:47;10.13;;;3.17;;
77109;SDS011;66062;52.464;16.922;2024-03-23T04:12:13;6.03;;;3.10;;
77109;SDS011;66062;52.464;16.922;2024-03-23T04:14:38;8.00;;;3.33;;
77109;SDS011;66062;52.464;16.922;2024-03-23T04:17:03;11.77;;;3.85;;
77109;SDS011;66062;52.464;16.922;2024-03-23T04:19:29;7.90;;;3.70;;
77109;SDS011;66062;52.464;16.922;2024-03-23T04:21:54;8.50;;;3.03;;
77109;SDS011;66062;52.464;16.922;2024-03-23T04:24:19;12.93;;;3.50;;
77109;SDS011;66062;52.464;16.922;2024-03-23T04:26:46;12.75;;;2.85;;
77109;SDS011;66062;52.464;16.922;2024-03-23T04:29:11;8.67;;;2.80;;
77109;SDS011;66062;52.464;16.922;2024-03-23T04:31:37;5.30;;;2.63;;
77109;SDS011;66062;52.464;16.922;2024-03-23T04:34:02;11.30;;;3.13;;
77109;SDS011;66062;52.464;16.922;2024-03-23T04:36:28;12.52;;;3.15;;
77109;SDS011;66062;52.464;16.922;2024-03-23T04:38:56;11.20;;;4.00;;
77109;SDS011;66062;52.464;16.922;2024-03-23T04:41:21;11.20;;;3.50;;
77109;SDS011;66062;52.464;16.922;2024-03-23T04:43:47;16.27;;;4.83;;
77109;SDS011;66062;52.464;16.922;2024-03-23T04:46:12;13.38;;;3.28;;
77109;SDS011;66062;52.464;16.922;2024-03-23T04:48:37;16.27;;;3.67;;
77109;SDS011;66062;52.464;16.922;2024-03-23T04:51:03;17.70;;;3.95;;
77109;SDS011;66062;52.464;16.922;2024-03-23T04:53:28;14.90;;;3.70;;
77109;SDS011;66062;52.464;16.922;2024-03-23T04:55:57;12.43;;;4.00;;
77109;SDS011;66062;52.464;16.922;2024-03-23T04:58:24;17.08;;;4.32;;
77109;SDS011;66062;52.464;16.922;2024-03-23T05:00:53;15.90;;;5.25;;
77109;SDS011;66062;52.464;16.922;2024-03-23T05:03:19;14.73;;;4.40;;
77109;SDS011;66062;52.464;16.922;2024-03-23T05:05:46;19.55;;;5.13;;
77109;SDS011;66062;52.464;16.922;2024-03-23T05:08:11;15.50;;;5.55;;
77109;SDS011;66062;52.464;16.922;2024-03-23T05:10:37;20.60;;;5.72;;
77109;SDS011;66062;52.464;16.922;2024-03-23T05:13:03;23.43;;;5.60;;
77109;SDS011;66062;52.464;16.922;2024-03-23T05:15:28;16.38;;;3.97;;
77109;SDS011;66062;52.464;16.922;2024-03-23T05:17:54;17.88;;;4.55;;
77109;SDS011;66062;52.464;16.922;2024-03-23T05:20:20;41.53;;;12.65;;
77109;SDS011;66062;52.464;16.922;2024-03-23T05:22:45;16.70;;;4.60;;
77109;SDS011;66062;52.464;16.922;2024-03-23T05:25:11;19.02;;;3.65;;
77109;SDS011;66062;52.464;16.922;2024-03-23T05:27:36;19.23;;;4.20;;
77109;SDS011;66062;52.464;16.922;2024-03-23T05:30:01;20.10;;;4.70;;
77109;SDS011;66062;52.464;16.922;2024-03-23T05:32:27;16.02;;;3.90;;
77109;SDS011;66062;52.464;16.922;2024-03-23T05:34:53;18.87;;;4.30;;
77109;SDS011;66062;52.464;16.922;2024-03-23T05:37:21;23.52;;;4.40;;
77109;SDS011;66062;52.464;16.922;2024-03-23T05:39:46;22.67;;;4.55;;
77109;SDS011;66062;52.464;16.922;2024-03-23T05:42:13;17.75;;;3.67;;
77109;SDS011;66062;52.464;16.922;2024-03-23T05:44:39;23.20;;;4.47;;
77109;SDS011;66062;52.464;16.922;2024-03-23T05:47:04;20.60;;;4.50;;
77109;SDS011;66062;52.464;16.922;2024-03-23T05:49:30;19.42;;;4.32;;
77109;SDS011;66062;52.464;16.922;2024-03-23T05:51:55;16.57;;;5.37;;
77109;SDS011;66062;52.464;16.922;2024-03-23T05:54:20;24.03;;;4.47;;
77109;SDS011;66062;52.464;16.922;2024-03-23T05:56:45;22.57;;;4.97;;
77109;SDS011;66062;52.464;16.922;2024-03-23T05:59:11;22.40;;;4.47;;
77109;SDS011;66062;52.464;16.922;2024-03-23T06:01:36;19.77;;;4.28;;
77109;SDS011;66062;52.464;16.922;2024-03-23T06:04:03;17.95;;;4.82;;
77109;SDS011;66062;52.464;16.922;2024-03-23T06:06:29;23.88;;;4.82;;
77109;SDS011;66062;52.464;16.922;2024-03-23T06:08:55;23.98;;;3.97;;
77109;SDS011;66062;52.464;16.922;2024-03-23T06:11:20;17.47;;;4.50;;
77109;SDS011;66062;52.464;16.922;2024-03-23T06:13:45;17.53;;;3.87;;
77109;SDS011;66062;52.464;16.922;2024-03-23T06:16:11;23.67;;;3.90;;
77109;SDS011;66062;52.464;16.922;2024-03-23T06:18:36;19.60;;;4.53;;
77109;SDS011;66062;52.464;16.922;2024-03-23T06:21:01;22.57;;;4.00;;
77109;SDS011;66062;52.464;16.922;2024-03-23T06:23:26;13.80;;;4.43;;
77109;SDS011;66062;52.464;16.922;2024-03-23T06:25:51;17.57;;;4.33;;
77109;SDS011;66062;52.464;16.922;2024-03-23T06:28:17;16.23;;;3.90;;
77109;SDS011;66062;52.464;16.922;2024-03-23T06:30:43;17.83;;;4.68;;
77109;SDS011;66062;52.464;16.922;2024-03-23T06:33:08;19.60;;;4.37;;
77109;SDS011;66062;52.464;16.922;2024-03-23T06:35:34;21.67;;;4.13;;
77109;SDS011;66062;52.464;16.922;2024-03-23T06:37:59;15.30;;;4.10;;
77109;SDS011;66062;52.464;16.922;2024-03-23T06:40:25;23.08;;;4.53;;
77109;SDS011;66062;52.464;16.922;2024-03-23T06:42:50;18.75;;;4.25;;
77109;SDS011;66062;52.464;16.922;2024-03-23T06:45:16;21.30;;;3.93;;
77109;SDS011;66062;52.464;16.922;2024-03-23T06:47:41;28.10;;;4.53;;
77109;SDS011;66062;52.464;16.922;2024-03-23T06:50:07;22.00;;;4.80;;
77109;SDS011;66062;52.464;16.922;2024-03-23T06:52:32;20.60;;;4.07;;
77109;SDS011;66062;52.464;16.922;2024-03-23T06:54:57;22.63;;;4.88;;
77109;SDS011;66062;52.464;16.922;2024-03-23T06:57:23;14.10;;;3.83;;
77109;SDS011;66062;52.464;16.922;2024-03-23T06:59:48;23.53;;;4.57;;
77109;SDS011;66062;52.464;16.922;2024-03-23T07:02:15;16.85;;;3.70;;
77109;SDS011;66062;52.464;16.922;2024-03-23T07:04:41;21.30;;;3.97;;
77109;SDS011;66062;52.464;16.922;2024-03-23T07:07:07;17.95;;;4.13;;
77109;SDS011;66062;52.464;16.922;2024-03-23T07:09:33;17.63;;;4.67;;
77109;SDS011;66062;52.464;16.922;2024-03-23T07:11:58;15.53;;;4.40;;
77109;SDS011;66062;52.464;16.922;2024-03-23T07:14:23;20.30;;;3.55;;
77109;SDS011;66062;52.464;16.922;2024-03-23T07:16:49;25.67;;;4.03;;
77109;SDS011;66062;52.464;16.922;2024-03-23T07:19:17;20.85;;;4.45;;
77109;SDS011;66062;52.464;16.922;2024-03-23T07:21:43;22.02;;;3.83;;
77109;SDS011;66062;52.464;16.922;2024-03-23T07:24:08;30.33;;;5.30;;
77109;SDS011;66062;52.464;16.922;2024-03-23T07:26:34;24.55;;;5.82;;
77109;SDS011;66062;52.464;16.922;2024-03-23T07:28:59;19.63;;;4.03;;
77109;SDS011;66062;52.464;16.922;2024-03-23T07:31:24;17.80;;;3.60;;
77109;SDS011;66062;52.464;16.922;2024-03-23T07:33:50;23.55;;;5.65;;
77109;SDS011;66062;52.464;16.922;2024-03-23T07:36:15;74.60;;;28.40;;
77109;SDS011;66062;52.464;16.922;2024-03-23T07:38:41;21.27;;;5.87;;
77109;SDS011;66062;52.464;16.922;2024-03-23T07:41:07;17.75;;;4.68;;
77109;SDS011;66062;52.464;16.922;2024-03-23T07:43:33;22.20;;;4.85;;
77109;SDS011;66062;52.464;16.922;2024-03-23T07:45:59;22.85;;;5.18;;
77109;SDS011;66062;52.464;16.922;2024-03-23T07:48:25;24.45;;;4.72;;
77109;SDS011;66062;52.464;16.922;2024-03-23T07:51:00;22.47;;;5.00;;
77109;SDS011;66062;52.464;16.922;2024-03-23T07:53:30;19.48;;;5.13;;
77109;SDS011;66062;52.464;16.922;2024-03-23T07:55:57;20.38;;;5.05;;
77109;SDS011;66062;52.464;16.922;2024-03-23T07:58:23;18.30;;;4.78;;
77109;SDS011;66062;52.464;16.922;2024-03-23T08:00:48;16.17;;;5.00;;
77109;SDS011;66062;52.464;16.922;2024-03-23T08:03:13;16.20;;;4.23;;
77109;SDS011;66062;52.464;16.922;2024-03-23T08:05:39;23.17;;;4.00;;
77109;SDS011;66062;52.464;16.922;2024-03-23T08:08:07;12.00;;;3.60;;
77109;SDS011;66062;52.464;16.922;2024-03-23T08:10:33;15.35;;;5.15;;
77109;SDS011;66062;52.464;16.922;2024-03-23T08:12:58;23.10;;;4.87;;
77109;SDS011;66062;52.464;16.922;2024-03-23T08:15:24;18.42;;;4.63;;
77109;SDS011;66062;52.464;16.922;2024-03-23T08:17:49;23.57;;;4.90;;
77109;SDS011;66062;52.464;16.922;2024-03-23T08:20:15;14.57;;;3.78;;
77109;SDS011;66062;52.464;16.922;2024-03-23T08:22:40;20.45;;;4.55;;
77109;SDS011;66062;52.464;16.922;2024-03-23T08:25:06;14.73;;;4.20;;
77109;SDS011;66062;52.464;16.922;2024-03-23T08:27:31;16.17;;;5.72;;
77109;SDS011;66062;52.464;16.922;2024-03-23T08:29:56;17.93;;;3.80;;
77109;SDS011;66062;52.464;16.922;2024-03-23T08:32:21;14.80;;;4.13;;
77109;SDS011;66062;52.464;16.922;2024-03-23T08:34:47;16.23;;;4.53;;
77109;SDS011;66062;52.464;16.922;2024-03-23T08:37:12;19.23;;;3.87;;
77109;SDS011;66062;52.464;16.922;2024-03-23T08:39:37;10.37;;;3.90;;
77109;SDS011;66062;52.464;16.922;2024-03-23T08:42:02;20.63;;;4.50;;
77109;SDS011;66062;52.464;16.922;2024-03-23T08:44:28;13.32;;;3.88;;
77109;SDS011;66062;52.464;16.922;2024-03-23T08:46:57;15.35;;;4.70;;
77109;SDS011;66062;52.464;16.922;2024-03-23T08:49:22;19.58;;;5.05;;
77109;SDS011;66062;52.464;16.922;2024-03-23T08:51:47;16.08;;;4.15;;
77109;SDS011;66062;52.464;16.922;2024-03-23T08:54:13;14.95;;;4.35;;
77109;SDS011;66062;52.464;16.922;2024-03-23T08:56:38;15.13;;;4.40;;
77109;SDS011;66062;52.464;16.922;2024-03-23T08:59:03;17.47;;;4.23;;
77109;SDS011;66062;52.464;16.922;2024-03-23T09:01:29;17.55;;;3.83;;
77109;SDS011;66062;52.464;16.922;2024-03-23T09:03:55;16.13;;;3.72;;
77109;SDS011;66062;52.464;16.922;2024-03-23T09:06:20;17.05;;;4.15;;
77109;SDS011;66062;52.464;16.922;2024-03-23T09:08:46;17.27;;;3.57;;
77109;SDS011;66062;52.464;16.922;2024-03-23T09:11:11;20.67;;;3.73;;
77109;SDS011;66062;52.464;16.922;2024-03-23T09:13:37;17.90;;;4.45;;
77109;SDS011;66062;52.464;16.922;2024-03-23T09:16:03;19.58;;;4.53;;
77109;SDS011;66062;52.464;16.922;2024-03-23T09:18:30;21.40;;;8.95;;
77109;SDS011;66062;52.464;16.922;2024-03-23T09:21:23;20.80;;;3.58;;
77109;SDS011;66062;52.464;16.922;2024-03-23T09:23:48;15.00;;;4.15;;
77109;SDS011;66062;52.464;16.922;2024-03-23T09:26:14;18.10;;;4.13;;
77109;SDS011;66062;52.464;16.922;2024-03-23T09:28:39;18.33;;;4.20;;
77109;SDS011;66062;52.464;16.922;2024-03-23T09:31:05;18.77;;;4.13;;
77109;SDS011;66062;52.464;16.922;2024-03-23T09:33:32;13.50;;;5.15;;
77109;SDS011;66062;52.464;16.922;2024-03-23T09:36:02;24.20;;;4.78;;
77109;SDS011;66062;52.464;16.922;2024-03-23T09:38:29;23.77;;;6.72;;
77109;SDS011;66062;52.464;16.922;2024-03-23T09:40:54;37.05;;;10.13;;
77109;SDS011;66062;52.464;16.922;2024-03-23T09:43:20;27.95;;;9.95;;
77109;SDS011;66062;52.464;16.922;2024-03-23T09:45:45;25.17;;;8.73;;
77109;SDS011;66062;52.464;16.922;2024-03-23T09:48:11;24.65;;;7.93;;
77109;SDS011;66062;52.464;16.922;2024-03-23T09:50:41;20.25;;;5.47;;
77109;SDS011;66062;52.464;16.922;2024-03-23T09:53:08;16.27;;;4.57;;
77109;SDS011;66062;52.464;16.922;2024-03-23T09:55:34;15.95;;;4.03;;
77109;SDS011;66062;52.464;16.922;2024-03-23T09:58:03;13.95;;;3.15;;
77109;SDS011;66062;52.464;16.922;2024-03-23T10:00:33;15.65;;;2.53;;
77109;SDS011;66062;52.464;16.922;2024-03-23T10:03:00;12.60;;;2.78;;
77109;SDS011;66062;52.464;16.922;2024-03-23T10:05:30;12.70;;;2.92;;
77109;SDS011;66062;52.464;16.922;2024-03-23T10:10:40;12.50;;;2.40;;
77109;SDS011;66062;52.464;16.922;2024-03-23T10:13:05;8.73;;;2.72;;
77109;SDS011;66062;52.464;16.922;2024-03-23T10:15:32;14.40;;;2.30;;
77109;SDS011;66062;52.464;16.922;2024-03-23T10:17:59;13.48;;;2.85;;
77109;SDS011;66062;52.464;16.922;2024-03-23T10:23:40;11.02;;;3.00;;
77109;SDS011;66062;52.464;16.922;2024-03-23T10:26:13;15.77;;;3.20;;
77109;SDS011;66062;52.464;16.922;2024-03-23T10:28:53;17.48;;;3.55;;
77109;SDS011;66062;52.464;16.922;2024-03-23T10:31:20;18.77;;;3.92;;
77109;SDS011;66062;52.464;16.922;2024-03-23T10:33:49;12.43;;;3.80;;
77109;SDS011;66062;52.464;16.922;2024-03-23T10:36:15;17.70;;;3.90;;
77109;SDS011;66062;52.464;16.922;2024-03-23T10:38:41;16.08;;;4.28;;
77109;SDS011;66062;52.464;16.922;2024-03-23T10:41:09;18.38;;;4.10;;
77109;SDS011;66062;52.464;16.922;2024-03-23T10:43:35;19.15;;;3.92;;
77109;SDS011;66062;52.464;16.922;2024-03-23T10:46:02;13.10;;;3.38;;
77109;SDS011;66062;52.464;16.922;2024-03-23T10:48:27;13.82;;;3.22;;
77109;SDS011;66062;52.464;16.922;2024-03-23T10:50:53;14.45;;;3.35;;
77109;SDS011;66062;52.464;16.922;2024-03-23T10:53:20;11.35;;;3.75;;
77109;SDS011;66062;52.464;16.922;2024-03-23T10:55:50;14.82;;;4.13;;
77109;SDS011;66062;52.464;16.922;2024-03-23T10:58:16;10.55;;;3.72;;
77109;SDS011;66062;52.464;16.922;2024-03-23T11:00:46;16.00;;;4.20;;
77109;SDS011;66062;52.464;16.922;2024-03-23T11:06:04;14.60;;;4.25;;
77109;SDS011;66062;52.464;16.922;2024-03-23T11:08:37;15.15;;;4.10;;
77109;SDS011;66062;52.464;16.922;2024-03-23T11:11:19;17.10;;;4.07;;
77109;SDS011;66062;52.464;16.922;2024-03-23T11:13:50;18.55;;;4.78;;
77109;SDS011;66062;52.464;16.922;2024-03-23T11:18:49;13.50;;;4.15;;
77109;SDS011;66062;52.464;16.922;2024-03-23T11:21:51;12.60;;;4.45;;
77109;SDS011;66062;52.464;16.922;2024-03-23T11:24:18;15.43;;;4.03;;
77109;SDS011;66062;52.464;16.922;2024-03-23T11:26:44;15.60;;;4.00;;
77109;SDS011;66062;52.464;16.922;2024-03-23T11:29:10;9.20;;;3.92;;
77109;SDS011;66062;52.464;16.922;2024-03-23T11:31:37;10.50;;;3.88;;
77109;SDS011;66062;52.464;16.922;2024-03-23T11:34:06;10.75;;;3.58;;
77109;SDS011;66062;52.464;16.922;2024-03-23T11:36:32;14.10;;;5.15;;
77109;SDS011;66062;52.464;16.922;2024-03-23T11:38:58;14.38;;;3.85;;
77109;SDS011;66062;52.464;16.922;2024-03-23T11:41:23;13.73;;;4.30;;
77109;SDS011;66062;52.464;16.922;2024-03-23T11:43:49;14.35;;;4.93;;
77109;SDS011;66062;52.464;16.922;2024-03-23T11:46:24;12.30;;;4.38;;
77109;SDS011;66062;52.464;16.922;2024-03-23T11:48:50;15.98;;;5.68;;
77109;SDS011;66062;52.464;16.922;2024-03-23T11:51:18;11.40;;;4.15;;
77109;SDS011;66062;52.464;16.922;2024-03-23T11:53:43;8.82;;;4.55;;
77109;SDS011;66062;52.464;16.922;2024-03-23T11:56:09;20.30;;;9.50;;
77109;SDS011;66062;52.464;16.922;2024-03-23T11:58:35;14.35;;;3.88;;
77109;SDS011;66062;52.464;16.922;2024-03-23T12:01:02;11.00;;;4.18;;
77109;SDS011;66062;52.464;16.922;2024-03-23T12:03:29;9.85;;;4.40;;
77109;SDS011;66062;52.464;16.922;2024-03-23T12:05:55;10.15;;;4.32;;
77109;SDS011;66062;52.464;16.922;2024-03-23T12:08:24;9.73;;;3.50;;
77109;SDS011;66062;52.464;16.922;2024-03-23T12:11:09;11.60;;;4.30;;
77109;SDS011;66062;52.464;16.922;2024-03-23T12:13:37;10.32;;;4.43;;
77109;SDS011;66062;52.464;16.922;2024-03-23T12:16:24;9.93;;;4.30;;
77109;SDS011;66062;52.464;16.922;2024-03-23T12:18:49;14.40;;;4.47;;
77109;SDS011;66062;52.464;16.922;2024-03-23T12:21:20;10.18;;;4.15;;
77109;SDS011;66062;52.464;16.922;2024-03-23T12:23:47;11.38;;;4.40;;
77109;SDS011;66062;52.464;16.922;2024-03-23T12:26:15;7.95;;;4.40;;
77109;SDS011;66062;52.464;16.922;2024-03-23T12:28:41;12.45;;;4.30;;
77109;SDS011;66062;52.464;16.922;2024-03-23T12:31:07;10.50;;;4.15;;
77109;SDS011;66062;52.464;16.922;2024-03-23T12:33:32;9.60;;;3.90;;
77109;SDS011;66062;52.464;16.922;2024-03-23T12:35:58;10.13;;;4.82;;
77109;SDS011;66062;52.464;16.922;2024-03-23T12:38:23;10.70;;;3.75;;
77109;SDS011;66062;52.464;16.922;2024-03-23T12:40:49;9.10;;;3.72;;
77109;SDS011;66062;52.464;16.922;2024-03-23T12:43:18;9.65;;;4.63;;
77109;SDS011;66062;52.464;16.922;2024-03-23T12:45:47;6.38;;;3.58;;
77109;SDS011;66062;52.464;16.922;2024-03-23T12:48:13;7.72;;;3.53;;
77109;SDS011;66062;52.464;16.922;2024-03-23T12:50:38;7.45;;;3.97;;
77109;SDS011;66062;52.464;16.922;2024-03-23T12:53:04;9.82;;;3.42;;
77109;SDS011;66062;52.464;16.922;2024-03-23T12:55:29;7.97;;;3.67;;
77109;SDS011;66062;52.464;16.922;2024-03-23T12:57:55;7.60;;;3.72;;
77109;SDS011;66062;52.464;16.922;2024-03-23T13:00:20;9.35;;;4.43;;
77109;SDS011;66062;52.464;16.922;2024-03-23T13:02:45;8.18;;;4.10;;
77109;SDS011;66062;52.464;16.922;2024-03-23T13:05:11;9.38;;;4.13;;
77109;SDS011;66062;52.464;16.922;2024-03-23T13:07:36;6.60;;;3.25;;
77109;SDS011;66062;52.464;16.922;2024-03-23T13:10:03;4.82;;;2.15;;
77109;SDS011;66062;52.464;16.922;2024-03-23T13:12:30;5.00;;;1.83;;
77109;SDS011;66062;52.464;16.922;2024-03-23T13:14:56;4.88;;;2.25;;
77109;SDS011;66062;52.464;16.922;2024-03-23T13:17:21;5.55;;;2.33;;
77109;SDS011;66062;52.464;16.922;2024-03-23T13:19:46;9.55;;;2.20;;
77109;SDS011;66062;52.464;16.922;2024-03-23T13:22:12;5.50;;;2.40;;
77109;SDS011;66062;52.464;16.922;2024-03-23T13:24:37;7.95;;;2.42;;
77109;SDS011;66062;52.464;16.922;2024-03-23T13:27:03;6.60;;;1.98;;
77109;SDS011;66062;52.464;16.922;2024-03-23T13:29:30;8.75;;;2.15;;
77109;SDS011;66062;52.464;16.922;2024-03-23T13:31:56;19.90;;;7.70;;
77109;SDS011;66062;52.464;16.922;2024-03-23T13:34:21;6.95;;;1.70;;
77109;SDS011;66062;52.464;16.922;2024-03-23T13:36:48;4.47;;;1.13;;
77109;SDS011;66062;52.464;16.922;2024-03-23T13:39:13;4.35;;;1.13;;
77109;SDS011;66062;52.464;16.922;2024-03-23T13:41:40;4.60;;;2.15;;
77109;SDS011;66062;52.464;16.922;2024-03-23T13:44:07;3.58;;;1.02;;
77109;SDS011;66062;52.464;16.922;2024-03-23T13:46:33;3.80;;;0.98;;
77109;SDS011;66062;52.464;16.922;2024-03-23T13:48:59;2.83;;;0.85;;
77109;SDS011;66062;52.464;16.922;2024-03-23T13:51:25;2.92;;;1.35;;
77109;SDS011;66062;52.464;16.922;2024-03-23T13:53:52;3.55;;;1.55;;
77109;SDS011;66062;52.464;16.922;2024-03-23T13:56:22;4.00;;;1.00;;
77109;SDS011;66062;52.464;16.922;2024-03-23T13:58:47;2.60;;;0.77;;
77109;SDS011;66062;52.464;16.922;2024-03-23T14:01:16;3.63;;;1.45;;
77109;SDS011;66062;52.464;16.922;2024-03-23T14:03:42;2.40;;;0.60;;
77109;SDS011;66062;52.464;16.922;2024-03-23T14:06:08;1.70;;;0.80;;
77109;SDS011;66062;52.464;16.922;2024-03-23T14:08:37;4.82;;;1.05;;
77109;SDS011;66062;52.464;16.922;2024-03-23T14:11:07;2.80;;;0.80;;
77109;SDS011;66062;52.464;16.922;2024-03-23T14:13:35;3.08;;;1.95;;
77109;SDS011;66062;52.464;16.922;2024-03-23T14:16:01;3.53;;;1.35;;
77109;SDS011;66062;52.464;16.922;2024-03-23T14:18:26;3.83;;;2.22;;
77109;SDS011;66062;52.464;16.922;2024-03-23T14:20:55;4.72;;;1.30;;
77109;SDS011;66062;52.464;16.922;2024-03-23T14:23:25;3.03;;;1.40;;
77109;SDS011;66062;52.464;16.922;2024-03-23T14:25:52;4.72;;;1.42;;
77109;SDS011;66062;52.464;16.922;2024-03-23T14:28:19;3.67;;;1.33;;
77109;SDS011;66062;52.464;16.922;2024-03-23T14:30:45;2.80;;;1.17;;
77109;SDS011;66062;52.464;16.922;2024-03-23T14:33:10;2.95;;;0.90;;
77109;SDS011;66062;52.464;16.922;2024-03-23T14:35:35;3.50;;;1.23;;
77109;SDS011;66062;52.464;16.922;2024-03-23T14:38:01;4.38;;;1.30;;
77109;SDS011;66062;52.464;16.922;2024-03-23T14:40:27;2.10;;;0.88;;
77109;SDS011;66062;52.464;16.922;2024-03-23T14:42:53;2.22;;;1.00;;
77109;SDS011;66062;52.464;16.922;2024-03-23T14:45:20;2.20;;;0.73;;
77109;SDS011;66062;52.464;16.922;2024-03-23T14:50:42;5.10;;;1.70;;
77109;SDS011;66062;52.464;16.922;2024-03-23T14:53:07;3.13;;;1.27;;
77109;SDS011;66062;52.464;16.922;2024-03-23T14:55:34;3.45;;;2.05;;
77109;SDS011;66062;52.464;16.922;2024-03-23T14:57:59;3.17;;;1.55;;
77109;SDS011;66062;52.464;16.922;2024-03-23T15:00:26;4.82;;;1.52;;
77109;SDS011;66062;52.464;16.922;2024-03-23T15:02:51;4.50;;;2.08;;
77109;SDS011;66062;52.464;16.922;2024-03-23T15:05:17;5.75;;;2.35;;
77109;SDS011;66062;52.464;16.922;2024-03-23T15:07:43;4.43;;;2.08;;
77109;SDS011;66062;52.464;16.922;2024-03-23T15:10:08;5.35;;;1.90;;
77109;SDS011;66062;52.464;16.922;2024-03-23T15:12:35;4.47;;;1.92;;
77109;SDS011;66062;52.464;16.922;2024-03-23T15:15:00;4.35;;;1.50;;
77109;SDS011;66062;52.464;16.922;2024-03-23T15:17:26;4.32;;;1.60;;
77109;SDS011;66062;52.464;16.922;2024-03-23T15:19:51;2.80;;;1.33;;
77109;SDS011;66062;52.464;16.922;2024-03-23T15:22:18;3.40;;;1.58;;